sensor_id;sensor_type;location;lat;lon;timestamp;pressure;altitude;pressure_sealevel;temperature;humidity
22743;BME280;11538;48.884;8.696;2023-04-01T00:00:01;97362.88;;;10.77;77.50
22743;BME280;11538;48.884;8.696;2023-04-01T00:02:28;97365.75;;;10.81;77.44
22743;BME280;11538;48.884;8.696;2023-04-01T00:04:55;97366.50;;;10.81;77.70
22743;BME280;11538;48.884;8.696;2023-04-01T00:07:22;97367.31;;;10.82;78.12
22743;BME280;11538;48.884;8.696;2023-04-01T00:09:49;97349.91;;;10.83;78.44
22743;BME280;11538;48.884;8.696;2023-04-01T00:12:15;97357.59;;;10.81;77.92
22743;BME280;11538;48.884;8.696;2023-04-01T00:14:43;97352.41;;;10.76;78.16
22743;BME280;11538;48.884;8.696;2023-04-01T00:17:10;97372.50;;;10.75;77.99
22743;BME280;11538;48.884;8.696;2023-04-01T00:19:37;97368.22;;;10.74;78.10
22743;BME280;11538;48.884;8.696;2023-04-01T00:22:07;97367.09;;;10.75;78.06
22743;BME280;11538;48.884;8.696;2023-04-01T00:24:38;97369.13;;;10.78;77.67
22743;BME280;11538;48.884;8.696;2023-04-01T00:27:05;97360.31;;;10.81;77.19
22743;BME280;11538;48.884;8.696;2023-04-01T00:29:32;97360.97;;;10.78;77.83
22743;BME280;11538;48.884;8.696;2023-04-01T00:31:59;97360.63;;;10.79;77.64
22743;BME280;11538;48.884;8.696;2023-04-01T00:34:26;97367.78;;;10.84;77.41
22743;BME280;11538;48.884;8.696;2023-04-01T00:36:53;97373.97;;;10.85;77.61
22743;BME280;11538;48.884;8.696;2023-04-01T00:39:21;97372.16;;;10.76;77.89
22743;BME280;11538;48.884;8.696;2023-04-01T00:41:48;97363.25;;;10.76;78.93
22743;BME280;11538;48.884;8.696;2023-04-01T00:44:24;97354.31;;;10.75;79.96
22743;BME280;11538;48.884;8.696;2023-04-01T00:46:52;97369.34;;;10.73;80.86
22743;BME280;11538;48.884;8.696;2023-04-01T00:49:25;97361.88;;;10.70;80.92
22743;BME280;11538;48.884;8.696;2023-04-01T00:51:57;97368.41;;;10.68;81.20
22743;BME280;11538;48.884;8.696;2023-04-01T00:54:27;97374.53;;;10.65;82.49
22743;BME280;11538;48.884;8.696;2023-04-01T00:57:05;97361.50;;;10.59;84.11
22743;BME280;11538;48.884;8.696;2023-04-01T00:59:40;97369.94;;;10.57;85.17
22743;BME280;11538;48.884;8.696;2023-04-01T01:02:12;97362.69;;;10.49;84.94
22743;BME280;11538;48.884;8.696;2023-04-01T01:04:39;97365.41;;;10.49;86.21
22743;BME280;11538;48.884;8.696;2023-04-01T01:07:27;97369.25;;;10.48;86.05
22743;BME280;11538;48.884;8.696;2023-04-01T01:10:16;97361.91;;;10.48;82.88
22743;BME280;11538;48.884;8.696;2023-04-01T01:13:25;97369.84;;;10.53;81.95
22743;BME280;11538;48.884;8.696;2023-04-01T01:16:02;97357.97;;;10.58;81.95
22743;BME280;11538;48.884;8.696;2023-04-01T01:24:31;97364.66;;;10.61;80.29
22743;BME280;11538;48.884;8.696;2023-04-01T01:27:17;97354.94;;;10.60;80.58
22743;BME280;11538;48.884;8.696;2023-04-01T01:29:47;97370.41;;;10.59;80.92
22743;BME280;11538;48.884;8.696;2023-04-01T01:32:48;97377.44;;;10.60;81.08
22743;BME280;11538;48.884;8.696;2023-04-01T01:38:13;97355.75;;;10.60;80.22
22743;BME280;11538;48.884;8.696;2023-04-01T01:40:45;97359.91;;;10.58;78.58
22743;BME280;11538;48.884;8.696;2023-04-01T01:43:21;97359.56;;;10.59;78.68
22743;BME280;11538;48.884;8.696;2023-04-01T01:45:55;97354.03;;;10.56;78.87
22743;BME280;11538;48.884;8.696;2023-04-01T01:48:26;97368.38;;;10.56;79.16
22743;BME280;11538;48.884;8.696;2023-04-01T01:50:54;97357.72;;;10.51;80.21
22743;BME280;11538;48.884;8.696;2023-04-01T01:53:21;97357.94;;;10.46;81.15
22743;BME280;11538;48.884;8.696;2023-04-01T01:55:48;97364.38;;;10.41;80.66
22743;BME280;11538;48.884;8.696;2023-04-01T01:58:40;97359.91;;;10.36;78.58
22743;BME280;11538;48.884;8.696;2023-04-01T02:01:15;97361.97;;;10.39;77.43
22743;BME280;11538;48.884;8.696;2023-04-01T02:03:45;97356.25;;;10.41;77.20
22743;BME280;11538;48.884;8.696;2023-04-01T02:06:18;97349.81;;;10.46;77.45
22743;BME280;11538;48.884;8.696;2023-04-01T02:08:59;97359.53;;;10.47;76.64
22743;BME280;11538;48.884;8.696;2023-04-01T02:11:48;97353.31;;;10.46;76.63
22743;BME280;11538;48.884;8.696;2023-04-01T02:14:53;97369.69;;;10.50;76.17
22743;BME280;11538;48.884;8.696;2023-04-01T02:17:21;97368.72;;;10.55;76.66
22743;BME280;11538;48.884;8.696;2023-04-01T02:20:04;97381.00;;;10.52;78.31
22743;BME280;11538;48.884;8.696;2023-04-01T02:22:43;97364.38;;;10.41;79.11
22743;BME280;11538;48.884;8.696;2023-04-01T02:25:16;97379.56;;;10.33;80.34
22743;BME280;11538;48.884;8.696;2023-04-01T02:27:46;97374.34;;;10.28;82.12
22743;BME280;11538;48.884;8.696;2023-04-01T02:30:16;97367.41;;;10.18;83.66
22743;BME280;11538;48.884;8.696;2023-04-01T02:32:44;97384.53;;;10.10;84.40
22743;BME280;11538;48.884;8.696;2023-04-01T02:35:15;97392.97;;;10.08;85.53
22743;BME280;11538;48.884;8.696;2023-04-01T02:37:44;97365.38;;;9.94;88.18
22743;BME280;11538;48.884;8.696;2023-04-01T02:40:14;97374.47;;;9.89;90.82
22743;BME280;11538;48.884;8.696;2023-04-01T02:42:42;97351.09;;;9.85;92.28
22743;BME280;11538;48.884;8.696;2023-04-01T02:45:10;97354.06;;;9.92;93.13
22743;BME280;11538;48.884;8.696;2023-04-01T02:47:40;97354.53;;;9.94;93.58
22743;BME280;11538;48.884;8.696;2023-04-01T02:50:08;97360.41;;;9.96;92.62
22743;BME280;11538;48.884;8.696;2023-04-01T02:52:35;97366.19;;;9.94;90.71
22743;BME280;11538;48.884;8.696;2023-04-01T02:55:03;97363.13;;;9.96;90.69
22743;BME280;11538;48.884;8.696;2023-04-01T02:57:31;97353.28;;;9.91;89.65
22743;BME280;11538;48.884;8.696;2023-04-01T02:59:58;97359.34;;;9.88;90.00
22743;BME280;11538;48.884;8.696;2023-04-01T03:02:25;97344.41;;;9.82;88.72
22743;BME280;11538;48.884;8.696;2023-04-01T03:04:52;97354.28;;;9.87;88.63
22743;BME280;11538;48.884;8.696;2023-04-01T03:07:19;97361.47;;;9.83;88.89
22743;BME280;11538;48.884;8.696;2023-04-01T03:09:46;97364.03;;;9.79;88.62
22743;BME280;11538;48.884;8.696;2023-04-01T03:12:12;97361.22;;;9.75;89.75
22743;BME280;11538;48.884;8.696;2023-04-01T03:14:39;97347.47;;;9.80;91.67
22743;BME280;11538;48.884;8.696;2023-04-01T03:17:06;97352.16;;;9.71;89.73
22743;BME280;11538;48.884;8.696;2023-04-01T03:19:33;97349.75;;;9.70;91.52
22743;BME280;11538;48.884;8.696;2023-04-01T03:22:00;97352.81;;;9.68;92.09
22743;BME280;11538;48.884;8.696;2023-04-01T03:24:27;97347.41;;;9.68;91.65
22743;BME280;11538;48.884;8.696;2023-04-01T03:26:54;97351.34;;;9.71;91.40
22743;BME280;11538;48.884;8.696;2023-04-01T03:29:21;97355.31;;;9.73;91.60
22743;BME280;11538;48.884;8.696;2023-04-01T03:31:47;97350.38;;;9.75;91.29
22743;BME280;11538;48.884;8.696;2023-04-01T03:34:14;97353.53;;;9.77;91.24
22743;BME280;11538;48.884;8.696;2023-04-01T03:36:41;97350.69;;;9.74;90.36
22743;BME280;11538;48.884;8.696;2023-04-01T03:39:08;97349.91;;;9.73;90.58
22743;BME280;11538;48.884;8.696;2023-04-01T03:41:39;97358.16;;;9.77;91.44
22743;BME280;11538;48.884;8.696;2023-04-01T03:44:06;97348.44;;;9.76;90.83
22743;BME280;11538;48.884;8.696;2023-04-01T03:46:33;97354.00;;;9.79;90.86
22743;BME280;11538;48.884;8.696;2023-04-01T03:49:00;97353.19;;;9.79;88.64
22743;BME280;11538;48.884;8.696;2023-04-01T03:51:26;97349.72;;;9.78;88.79
22743;BME280;11538;48.884;8.696;2023-04-01T03:53:53;97353.34;;;9.83;88.40
22743;BME280;11538;48.884;8.696;2023-04-01T03:56:21;97348.91;;;9.78;87.07
22743;BME280;11538;48.884;8.696;2023-04-01T03:58:47;97353.34;;;9.83;87.65
22743;BME280;11538;48.884;8.696;2023-04-01T04:01:20;97353.47;;;9.86;87.03
22743;BME280;11538;48.884;8.696;2023-04-01T04:03:51;97336.09;;;9.87;87.54
22743;BME280;11538;48.884;8.696;2023-04-01T04:06:19;97341.84;;;9.86;86.43
22743;BME280;11538;48.884;8.696;2023-04-01T04:08:46;97326.72;;;9.85;86.11
22743;BME280;11538;48.884;8.696;2023-04-01T04:11:13;97331.75;;;9.95;86.26
22743;BME280;11538;48.884;8.696;2023-04-01T04:13:40;97330.63;;;9.96;84.18
22743;BME280;11538;48.884;8.696;2023-04-01T04:16:08;97334.78;;;9.93;84.79
22743;BME280;11538;48.884;8.696;2023-04-01T04:18:37;97326.78;;;9.97;84.64
22743;BME280;11538;48.884;8.696;2023-04-01T04:21:04;97334.91;;;9.97;83.91
22743;BME280;11538;48.884;8.696;2023-04-01T04:23:32;97336.97;;;10.00;83.69
22743;BME280;11538;48.884;8.696;2023-04-01T04:26:06;97324.53;;;9.99;84.01
22743;BME280;11538;48.884;8.696;2023-04-01T04:28:33;97325.34;;;10.00;84.25
22743;BME280;11538;48.884;8.696;2023-04-01T04:31:01;97337.16;;;9.95;84.08
22743;BME280;11538;48.884;8.696;2023-04-01T04:33:28;97324.44;;;9.95;83.27
22743;BME280;11538;48.884;8.696;2023-04-01T04:35:57;97321.56;;;9.92;83.57
22743;BME280;11538;48.884;8.696;2023-04-01T04:38:25;97320.44;;;9.93;84.58
22743;BME280;11538;48.884;8.696;2023-04-01T04:40:52;97323.81;;;9.90;84.00
22743;BME280;11538;48.884;8.696;2023-04-01T04:43:19;97312.06;;;9.86;83.48
22743;BME280;11538;48.884;8.696;2023-04-01T04:45:46;97329.25;;;9.90;83.36
22743;BME280;11538;48.884;8.696;2023-04-01T04:48:15;97332.56;;;9.95;82.29
22743;BME280;11538;48.884;8.696;2023-04-01T04:50:50;97321.72;;;9.95;81.60
22743;BME280;11538;48.884;8.696;2023-04-01T04:53:18;97324.88;;;9.98;81.56
22743;BME280;11538;48.884;8.696;2023-04-01T04:55:49;97317.09;;;9.96;82.46
22743;BME280;11538;48.884;8.696;2023-04-01T04:58:17;97323.94;;;9.93;83.08
22743;BME280;11538;48.884;8.696;2023-04-01T05:00:45;97328.78;;;9.88;82.67
22743;BME280;11538;48.884;8.696;2023-04-01T05:03:13;97327.50;;;9.85;83.07
22743;BME280;11538;48.884;8.696;2023-04-01T05:05:50;97331.69;;;9.83;81.99
22743;BME280;11538;48.884;8.696;2023-04-01T05:08:18;97321.78;;;9.87;81.97
22743;BME280;11538;48.884;8.696;2023-04-01T05:10:45;97313.44;;;9.92;81.43
22743;BME280;11538;48.884;8.696;2023-04-01T05:13:12;97313.91;;;9.94;81.26
22743;BME280;11538;48.884;8.696;2023-04-01T05:15:39;97310.06;;;9.95;81.08
22743;BME280;11538;48.884;8.696;2023-04-01T05:18:06;97304.34;;;9.97;80.57
22743;BME280;11538;48.884;8.696;2023-04-01T05:20:33;97295.22;;;10.01;80.48
22743;BME280;11538;48.884;8.696;2023-04-01T05:23:00;97295.66;;;10.03;79.69
22743;BME280;11538;48.884;8.696;2023-04-01T05:25:27;97286.63;;;9.99;79.13
22743;BME280;11538;48.884;8.696;2023-04-01T05:27:54;97289.00;;;10.01;79.52
22743;BME280;11538;48.884;8.696;2023-04-01T05:30:21;97284.06;;;10.03;79.92
22743;BME280;11538;48.884;8.696;2023-04-01T05:32:48;97292.19;;;10.03;78.65
22743;BME280;11538;48.884;8.696;2023-04-01T05:35:15;97304.72;;;10.07;78.46
22743;BME280;11538;48.884;8.696;2023-04-01T05:37:42;97302.91;;;10.12;79.28
22743;BME280;11538;48.884;8.696;2023-04-01T05:40:09;97287.13;;;10.14;79.13
22743;BME280;11538;48.884;8.696;2023-04-01T05:42:37;97298.63;;;10.10;79.01
22743;BME280;11538;48.884;8.696;2023-04-01T05:45:04;97286.34;;;10.13;80.16
22743;BME280;11538;48.884;8.696;2023-04-01T05:47:32;97295.72;;;10.16;80.83
22743;BME280;11538;48.884;8.696;2023-04-01T05:49:58;97293.00;;;10.16;81.78
22743;BME280;11538;48.884;8.696;2023-04-01T05:52:25;97291.88;;;10.17;83.00
22743;BME280;11538;48.884;8.696;2023-04-01T05:54:52;97316.25;;;10.17;83.68
22743;BME280;11538;48.884;8.696;2023-04-01T05:57:19;97307.22;;;10.13;83.16
22743;BME280;11538;48.884;8.696;2023-04-01T05:59:46;97312.53;;;10.09;83.54
22743;BME280;11538;48.884;8.696;2023-04-01T06:02:17;97308.09;;;10.04;85.43
22743;BME280;11538;48.884;8.696;2023-04-01T06:04:45;97306.84;;;10.02;86.69
22743;BME280;11538;48.884;8.696;2023-04-01T06:07:15;97307.50;;;9.99;88.68
22743;BME280;11538;48.884;8.696;2023-04-01T06:09:44;97306.25;;;9.96;89.43
22743;BME280;11538;48.884;8.696;2023-04-01T06:12:48;97303.94;;;9.86;91.03
22743;BME280;11538;48.884;8.696;2023-04-01T06:15:29;97309.88;;;9.79;91.09
22743;BME280;11538;48.884;8.696;2023-04-01T06:21:40;97316.31;;;9.74;93.95
22743;BME280;11538;48.884;8.696;2023-04-01T06:24:43;97314.06;;;9.76;94.52
22743;BME280;11538;48.884;8.696;2023-04-01T06:27:28;97310.34;;;9.81;95.23
22743;BME280;11538;48.884;8.696;2023-04-01T06:30:36;97310.28;;;9.69;96.72
22743;BME280;11538;48.884;8.696;2023-04-01T06:33:32;97314.00;;;9.64;96.66
22743;BME280;11538;48.884;8.696;2023-04-01T06:39:40;97317.56;;;9.56;98.08
22743;BME280;11538;48.884;8.696;2023-04-01T06:43:30;97329.09;;;9.65;98.33
22743;BME280;11538;48.884;8.696;2023-04-01T06:45:52;97330.03;;;9.69;99.23
22743;BME280;11538;48.884;8.696;2023-04-01T06:52:23;97327.53;;;9.64;100.00
22743;BME280;11538;48.884;8.696;2023-04-01T06:55:15;97329.56;;;9.67;100.00
22743;BME280;11538;48.884;8.696;2023-04-01T06:57:49;97327.31;;;9.69;99.93
22743;BME280;11538;48.884;8.696;2023-04-01T07:00:39;97324.22;;;9.58;99.97
22743;BME280;11538;48.884;8.696;2023-04-01T07:03:38;97335.50;;;9.60;100.00
22743;BME280;11538;48.884;8.696;2023-04-01T07:06:43;97333.13;;;9.59;100.00
22743;BME280;11538;48.884;8.696;2023-04-01T07:09:20;97329.03;;;9.53;100.00
22743;BME280;11538;48.884;8.696;2023-04-01T07:11:53;97328.03;;;9.57;100.00
22743;BME280;11538;48.884;8.696;2023-04-01T07:14:35;97335.19;;;9.62;100.00
22743;BME280;11538;48.884;8.696;2023-04-01T07:17:15;97333.41;;;9.66;100.00
22743;BME280;11538;48.884;8.696;2023-04-01T07:22:45;97345.47;;;9.69;99.45
22743;BME280;11538;48.884;8.696;2023-04-01T07:25:21;97331.75;;;9.74;100.00
22743;BME280;11538;48.884;8.696;2023-04-01T07:27:52;97345.53;;;9.81;100.00
22743;BME280;11538;48.884;8.696;2023-04-01T07:30:22;97339.59;;;9.88;99.66
22743;BME280;11538;48.884;8.696;2023-04-01T07:35:50;97338.28;;;9.94;97.30
22743;BME280;11538;48.884;8.696;2023-04-01T07:44:25;97360.22;;;10.01;96.03
22743;BME280;11538;48.884;8.696;2023-04-01T07:50:25;97354.34;;;9.99;96.81
22743;BME280;11538;48.884;8.696;2023-04-01T07:53:22;97354.81;;;10.01;99.42
22743;BME280;11538;48.884;8.696;2023-04-01T07:56:02;97372.19;;;10.00;95.91
22743;BME280;11538;48.884;8.696;2023-04-01T07:59:37;97383.22;;;9.95;98.84
22743;BME280;11538;48.884;8.696;2023-04-01T08:02:15;97375.13;;;9.86;99.02
22743;BME280;11538;48.884;8.696;2023-04-01T08:05:04;97376.13;;;9.82;100.00
22743;BME280;11538;48.884;8.696;2023-04-01T08:07:47;97369.34;;;9.75;100.00
22743;BME280;11538;48.884;8.696;2023-04-01T08:10:44;97380.06;;;9.63;100.00
22743;BME280;11538;48.884;8.696;2023-04-01T08:20:50;97355.84;;;9.36;100.00
22743;BME280;11538;48.884;8.696;2023-04-01T08:23:32;97381.44;;;9.48;100.00
22743;BME280;11538;48.884;8.696;2023-04-01T08:26:34;97365.81;;;9.54;100.00
22743;BME280;11538;48.884;8.696;2023-04-01T08:29:23;97371.69;;;9.56;100.00
22743;BME280;11538;48.884;8.696;2023-04-01T08:32:15;97363.75;;;9.50;100.00
22743;BME280;11538;48.884;8.696;2023-04-01T08:34:55;97368.78;;;9.61;100.00
22743;BME280;11538;48.884;8.696;2023-04-01T08:37:32;97374.94;;;9.70;100.00
22743;BME280;11538;48.884;8.696;2023-04-01T08:40:32;97376.97;;;9.73;100.00
22743;BME280;11538;48.884;8.696;2023-04-01T08:52:44;97356.13;;;10.16;100.00
22743;BME280;11538;48.884;8.696;2023-04-01T08:55:49;97362.16;;;10.34;97.13
22743;BME280;11538;48.884;8.696;2023-04-01T08:58:52;97370.91;;;10.40;95.27
22743;BME280;11538;48.884;8.696;2023-04-01T09:01:57;97384.53;;;10.52;95.78
22743;BME280;11538;48.884;8.696;2023-04-01T09:07:40;97378.97;;;10.49;92.92
22743;BME280;11538;48.884;8.696;2023-04-01T09:10:20;97383.81;;;10.43;94.35
22743;BME280;11538;48.884;8.696;2023-04-01T09:13:20;97379.03;;;10.61;94.46
22743;BME280;11538;48.884;8.696;2023-04-01T09:16:27;97388.00;;;10.53;92.95
22743;BME280;11538;48.884;8.696;2023-04-01T09:28:16;97381.97;;;10.68;91.35
22743;BME280;11538;48.884;8.696;2023-04-01T09:31:13;97385.22;;;10.62;90.57
22743;BME280;11538;48.884;8.696;2023-04-01T09:36:49;97368.00;;;10.91;91.28
22743;BME280;11538;48.884;8.696;2023-04-01T09:39:38;97373.41;;;10.79;88.25
22743;BME280;11538;48.884;8.696;2023-04-01T09:45:00;97385.44;;;11.03;87.24
22743;BME280;11538;48.884;8.696;2023-04-01T09:56:58;97379.31;;;11.68;82.75
22743;BME280;11538;48.884;8.696;2023-04-01T10:11:58;97387.84;;;11.29;83.15
22743;BME280;11538;48.884;8.696;2023-04-01T10:24:23;97390.44;;;11.25;84.38
22743;BME280;11538;48.884;8.696;2023-04-01T10:27:44;97397.91;;;11.29;84.15
22743;BME280;11538;48.884;8.696;2023-04-01T10:31:13;97392.25;;;11.46;83.32
22743;BME280;11538;48.884;8.696;2023-04-01T10:36:57;97398.22;;;12.02;80.39
22743;BME280;11538;48.884;8.696;2023-04-01T10:49:10;97399.63;;;12.81;74.67
22743;BME280;11538;48.884;8.696;2023-04-01T10:52:23;97416.22;;;12.92;74.32
22743;BME280;11538;48.884;8.696;2023-04-01T11:01:27;97404.31;;;13.28;70.78
22743;BME280;11538;48.884;8.696;2023-04-01T11:11:35;97412.72;;;13.87;70.65
22743;BME280;11538;48.884;8.696;2023-04-01T11:14:35;97430.53;;;13.49;71.62
22743;BME280;11538;48.884;8.696;2023-04-01T11:27:09;97413.03;;;12.45;78.18
22743;BME280;11538;48.884;8.696;2023-04-01T11:35:40;97436.59;;;12.12;79.31
22743;BME280;11538;48.884;8.696;2023-04-01T11:38:30;97463.38;;;12.26;79.41
22743;BME280;11538;48.884;8.696;2023-04-01T11:41:23;97430.59;;;12.07;78.17
22743;BME280;11538;48.884;8.696;2023-04-01T11:53:01;97433.88;;;12.41;80.48
22743;BME280;11538;48.884;8.696;2023-04-01T11:55:58;97445.84;;;12.52;78.06
22743;BME280;11538;48.884;8.696;2023-04-01T12:04:26;97464.88;;;13.70;73.52
22743;BME280;11538;48.884;8.696;2023-04-01T12:07:59;97475.03;;;14.60;69.73
22743;BME280;11538;48.884;8.696;2023-04-01T12:10:21;97456.66;;;14.57;67.08
22743;BME280;11538;48.884;8.696;2023-04-01T12:21:24;97479.97;;;13.07;72.10
22743;BME280;11538;48.884;8.696;2023-04-01T12:24:35;97462.94;;;12.65;74.71
22743;BME280;11538;48.884;8.696;2023-04-01T12:27:34;97465.94;;;12.48;74.89
22743;BME280;11538;48.884;8.696;2023-04-01T12:36:09;97478.88;;;12.38;77.16
22743;BME280;11538;48.884;8.696;2023-04-01T12:39:39;97468.28;;;12.21;78.48
22743;BME280;11538;48.884;8.696;2023-04-01T12:43:02;97472.38;;;12.14;78.72
22743;BME280;11538;48.884;8.696;2023-04-01T12:45:35;97480.16;;;12.16;79.40
22743;BME280;11538;48.884;8.696;2023-04-01T12:48:21;97489.22;;;12.20;79.22
22743;BME280;11538;48.884;8.696;2023-04-01T13:06:29;97477.59;;;12.61;76.79
22743;BME280;11538;48.884;8.696;2023-04-01T13:09:45;97488.13;;;12.62;77.57
22743;BME280;11538;48.884;8.696;2023-04-01T13:24:55;97506.56;;;12.16;87.53
22743;BME280;11538;48.884;8.696;2023-04-01T13:27:38;97514.84;;;12.07;88.37
22743;BME280;11538;48.884;8.696;2023-04-01T13:30:42;97513.81;;;12.24;85.03
22743;BME280;11538;48.884;8.696;2023-04-01T13:33:30;97508.84;;;12.54;81.95
22743;BME280;11538;48.884;8.696;2023-04-01T13:42:34;97525.69;;;12.32;84.63
22743;BME280;11538;48.884;8.696;2023-04-01T13:45:18;97522.53;;;12.17;85.69
22743;BME280;11538;48.884;8.696;2023-04-01T13:48:18;97520.13;;;11.91;89.83
22743;BME280;11538;48.884;8.696;2023-04-01T14:03:28;97538.31;;;11.53;92.69
22743;BME280;11538;48.884;8.696;2023-04-01T14:18:07;97521.91;;;12.49;86.38
22743;BME280;11538;48.884;8.696;2023-04-01T14:21:21;97516.31;;;12.57;85.40
22743;BME280;11538;48.884;8.696;2023-04-01T14:24:20;97531.56;;;12.34;84.95
22743;BME280;11538;48.884;8.696;2023-04-01T14:33:21;97527.47;;;11.78;89.80
22743;BME280;11538;48.884;8.696;2023-04-01T14:40:00;97531.41;;;11.68;88.92
22743;BME280;11538;48.884;8.696;2023-04-01T14:46:08;97552.47;;;11.71;91.30
22743;BME280;11538;48.884;8.696;2023-04-01T14:49:05;97530.97;;;11.78;91.32
22743;BME280;11538;48.884;8.696;2023-04-01T14:51:41;97522.38;;;11.89;91.90
22743;BME280;11538;48.884;8.696;2023-04-01T14:56:49;97535.19;;;11.76;90.54
22743;BME280;11538;48.884;8.696;2023-04-01T15:05:06;97535.03;;;11.72;90.62
22743;BME280;11538;48.884;8.696;2023-04-01T15:08:09;97544.31;;;11.71;89.71
22743;BME280;11538;48.884;8.696;2023-04-01T15:16:21;97541.38;;;11.64;90.99
22743;BME280;11538;48.884;8.696;2023-04-01T15:19:21;97543.56;;;11.70;89.05
22743;BME280;11538;48.884;8.696;2023-04-01T15:27:40;97553.28;;;11.72;86.78
22743;BME280;11538;48.884;8.696;2023-04-01T15:30:28;97558.94;;;11.79;86.30
22743;BME280;11538;48.884;8.696;2023-04-01T15:33:20;97544.66;;;11.57;85.11
22743;BME280;11538;48.884;8.696;2023-04-01T15:36:32;97557.09;;;11.46;86.20
22743;BME280;11538;48.884;8.696;2023-04-01T15:39:13;97552.88;;;11.48;85.77
22743;BME280;11538;48.884;8.696;2023-04-01T15:50:44;97562.72;;;11.40;88.60
22743;BME280;11538;48.884;8.696;2023-04-01T15:53:31;97578.34;;;11.44;87.79
22743;BME280;11538;48.884;8.696;2023-04-01T15:59:20;97559.84;;;11.24;86.68
22743;BME280;11538;48.884;8.696;2023-04-01T16:05:23;97579.16;;;11.23;86.31
22743;BME280;11538;48.884;8.696;2023-04-01T16:11:22;97579.78;;;11.07;88.22
22743;BME280;11538;48.884;8.696;2023-04-01T16:17:34;97583.97;;;11.05;89.76
22743;BME280;11538;48.884;8.696;2023-04-01T16:20:20;97576.44;;;10.89;92.03
22743;BME280;11538;48.884;8.696;2023-04-01T16:22:58;97573.91;;;10.84;93.06
22743;BME280;11538;48.884;8.696;2023-04-01T16:25:40;97580.53;;;10.95;96.37
22743;BME280;11538;48.884;8.696;2023-04-01T16:28:30;97579.66;;;11.04;97.45
22743;BME280;11538;48.884;8.696;2023-04-01T16:31:10;97583.16;;;11.04;94.78
22743;BME280;11538;48.884;8.696;2023-04-01T16:33:56;97574.44;;;10.99;94.10
22743;BME280;11538;48.884;8.696;2023-04-01T16:37:12;97579.59;;;10.91;96.07
22743;BME280;11538;48.884;8.696;2023-04-01T16:42:56;97568.88;;;10.95;94.65
22743;BME280;11538;48.884;8.696;2023-04-01T16:45:44;97566.63;;;10.97;94.94
22743;BME280;11538;48.884;8.696;2023-04-01T16:48:27;97572.44;;;11.08;95.54
22743;BME280;11538;48.884;8.696;2023-04-01T16:51:10;97569.72;;;11.08;93.49
22743;BME280;11538;48.884;8.696;2023-04-01T16:56:24;97581.44;;;11.00;94.33
22743;BME280;11538;48.884;8.696;2023-04-01T16:59:19;97594.09;;;10.95;94.57
22743;BME280;11538;48.884;8.696;2023-04-01T17:04:57;97612.63;;;10.93;93.53
22743;BME280;11538;48.884;8.696;2023-04-01T17:08:08;97623.78;;;10.92;97.21
22743;BME280;11538;48.884;8.696;2023-04-01T17:10:56;97645.28;;;10.97;99.08
22743;BME280;11538;48.884;8.696;2023-04-01T17:20:01;97675.38;;;10.53;100.00
22743;BME280;11538;48.884;8.696;2023-04-01T17:23:10;97668.88;;;10.36;100.00
22743;BME280;11538;48.884;8.696;2023-04-01T17:25:55;97680.13;;;10.17;100.00
22743;BME280;11538;48.884;8.696;2023-04-01T17:28:50;97648.19;;;9.93;100.00
22743;BME280;11538;48.884;8.696;2023-04-01T17:42:56;97649.28;;;9.92;100.00
22743;BME280;11538;48.884;8.696;2023-04-01T17:45:52;97648.34;;;9.88;100.00
22743;BME280;11538;48.884;8.696;2023-04-01T17:48:37;97655.19;;;9.94;100.00
22743;BME280;11538;48.884;8.696;2023-04-01T17:51:43;97657.25;;;9.97;100.00
22743;BME280;11538;48.884;8.696;2023-04-01T17:54:42;97659.47;;;9.95;100.00
22743;BME280;11538;48.884;8.696;2023-04-01T17:57:46;97663.31;;;9.94;100.00
22743;BME280;11538;48.884;8.696;2023-04-01T18:00:22;97661.88;;;9.88;100.00
22743;BME280;11538;48.884;8.696;2023-04-01T18:03:16;97670.66;;;9.85;100.00
22743;BME280;11538;48.884;8.696;2023-04-01T18:06:03;97667.47;;;9.83;100.00
22743;BME280;11538;48.884;8.696;2023-04-01T18:09:19;97677.19;;;9.75;100.00
22743;BME280;11538;48.884;8.696;2023-04-01T18:26:09;97710.03;;;9.64;100.00
22743;BME280;11538;48.884;8.696;2023-04-01T18:28:51;97710.66;;;9.61;100.00
22743;BME280;11538;48.884;8.696;2023-04-01T18:31:32;97709.88;;;9.61;100.00
22743;BME280;11538;48.884;8.696;2023-04-01T18:34:15;97704.13;;;9.62;100.00
22743;BME280;11538;48.884;8.696;2023-04-01T18:37:00;97712.44;;;9.66;100.00
22743;BME280;11538;48.884;8.696;2023-04-01T18:39:55;97707.78;;;9.66;100.00
22743;BME280;11538;48.884;8.696;2023-04-01T18:46:05;97713.22;;;9.49;100.00
22743;BME280;11538;48.884;8.696;2023-04-01T18:49:01;97713.38;;;9.53;100.00
22743;BME280;11538;48.884;8.696;2023-04-01T18:51:45;97714.16;;;9.53;100.00
22743;BME280;11538;48.884;8.696;2023-04-01T18:54:33;97715.44;;;9.47;100.00
22743;BME280;11538;48.884;8.696;2023-04-01T18:57:14;97725.50;;;9.46;100.00
22743;BME280;11538;48.884;8.696;2023-04-01T18:59:51;97722.44;;;9.48;100.00
22743;BME280;11538;48.884;8.696;2023-04-01T19:02:41;97721.19;;;9.54;100.00
22743;BME280;11538;48.884;8.696;2023-04-01T19:05:23;97725.63;;;9.50;100.00
22743;BME280;11538;48.884;8.696;2023-04-01T19:07:56;97727.06;;;9.56;100.00
22743;BME280;11538;48.884;8.696;2023-04-01T19:11:06;97725.81;;;9.54;100.00
22743;BME280;11538;48.884;8.696;2023-04-01T19:16:46;97728.19;;;9.55;100.00
22743;BME280;11538;48.884;8.696;2023-04-01T19:28:46;97742.84;;;9.63;100.00
22743;BME280;11538;48.884;8.696;2023-04-01T19:37:25;97756.22;;;9.68;100.00
22743;BME280;11538;48.884;8.696;2023-04-01T19:46:27;97751.13;;;9.75;100.00
22743;BME280;11538;48.884;8.696;2023-04-01T19:49:42;97758.13;;;9.76;100.00
22743;BME280;11538;48.884;8.696;2023-04-01T19:52:40;97749.84;;;9.73;100.00
22743;BME280;11538;48.884;8.696;2023-04-01T19:55:33;97754.13;;;9.74;100.00
22743;BME280;11538;48.884;8.696;2023-04-01T19:58:24;97747.78;;;9.78;100.00
22743;BME280;11538;48.884;8.696;2023-04-01T20:00:57;97751.59;;;9.77;100.00
22743;BME280;11538;48.884;8.696;2023-04-01T20:03:48;97759.72;;;9.77;100.00
22743;BME280;11538;48.884;8.696;2023-04-01T20:09:57;97772.44;;;9.77;100.00